Time;durP1;ratioP1;P1;durP2;ratioP2;P2;SDS_P1;SDS_P2;PMS_P1;PMS_P2;Temp;Humidity;BMP_temperature;BMP_pressure;BME280_temperature;BME280_humidity;BME280_pressure;Samples;Min_cycle;Max_cycle;Signal;HPM_P1;HPM_P2
2022/08/07 00:01:44;;;;;;;1.73;1.20;;;18.30;93.30;;;;;;4064529;29;20609;-64
2022/08/07 00:03:45;;;;;;;1.02;0.90;;;18.20;93.30;;;;;;4065450;29;20467;-64
2022/08/07 00:05:45;;;;;;;1.90;1.50;;;18.30;94.20;;;;;;4064932;29;20036;-64
2022/08/07 00:07:46;;;;;;;1.98;1.55;;;18.30;94.20;;;;;;4064822;29;20044;-64
2022/08/07 00:09:47;;;;;;;2.22;1.40;;;18.20;93.70;;;;;;4065346;29;20052;-64
2022/08/07 00:11:48;;;;;;;1.17;1.08;;;18.20;92.90;;;;;;4064970;29;20515;-64
2022/08/07 00:13:48;;;;;;;1.85;1.48;;;18.20;93.00;;;;;;4061674;29;20408;-64
2022/08/07 00:15:50;;;;;;;1.30;1.20;;;18.20;93.20;;;;;;4065084;29;20876;-64
2022/08/07 00:17:51;;;;;;;1.98;1.50;;;18.20;93.20;;;;;;4066007;29;20060;-64
2022/08/07 00:19:52;;;;;;;2.03;1.27;;;18.10;93.40;;;;;;4065394;29;20088;-65
2022/08/07 00:21:52;;;;;;;1.85;1.30;;;18.10;93.30;;;;;;4064452;29;20032;-65
2022/08/07 00:23:53;;;;;;;3.05;1.48;;;18.10;93.10;;;;;;4065638;29;20123;-64
2022/08/07 00:25:53;;;;;;;1.98;1.33;;;18.10;93.00;;;;;;4064649;29;20495;-64
2022/08/07 00:27:54;;;;;;;3.55;1.50;;;18.00;93.40;;;;;;4065512;29;20040;-64
2022/08/07 00:29:54;;;;;;;1.83;1.25;;;18.00;94.90;;;;;;4065128;29;20578;-64
2022/08/07 00:31:58;;;;;;;2.28;1.60;;;18.00;93.50;;;;;;4064553;29;20185;-64
2022/08/07 00:33:59;;;;;;;1.80;1.30;;;17.90;93.50;;;;;;4069066;29;20099;-64
2022/08/07 00:35:59;;;;;;;1.90;1.50;;;17.90;93.70;;;;;;4069426;29;20032;-64
2022/08/07 00:38:00;;;;;;;2.38;1.50;;;17.80;94.10;;;;;;4069773;29;20039;-64
2022/08/07 00:40:01;;;;;;;1.98;1.40;;;17.90;94.30;;;;;;4071108;29;20040;-64
2022/08/07 00:42:02;;;;;;;3.03;1.35;;;17.80;94.20;;;;;;4054089;29;20047;-64
2022/08/07 00:44:03;;;;;;;2.15;1.63;;;17.80;94.50;;;;;;4071035;29;20027;-64
2022/08/07 00:46:04;;;;;;;1.73;1.42;;;17.80;93.80;;;;;;4070236;29;20136;-65
2022/08/07 00:48:06;;;;;;;1.98;1.27;;;17.80;93.50;;;;;;4071803;29;20078;-64
2022/08/07 00:50:07;;;;;;;2.47;1.60;;;17.80;93.20;;;;;;4070871;29;20059;-64
2022/08/07 00:52:08;;;;;;;1.58;1.42;;;17.80;93.70;;;;;;4070067;29;20046;-64
2022/08/07 00:54:11;;;;;;;1.75;1.48;;;17.80;93.30;;;;;;4069944;29;20510;-64
2022/08/07 00:56:14;;;;;;;1.75;1.60;;;17.80;93.00;;;;;;4071384;29;20024;-65
2022/08/07 00:58:14;;;;;;;1.77;1.48;;;17.70;92.70;;;;;;4069232;29;20036;-64
2022/08/07 01:00:15;;;;;;;2.67;1.70;;;17.70;93.30;;;;;;4070503;29;20550;-64
2022/08/07 01:02:16;;;;;;;1.70;1.38;;;17.70;93.50;;;;;;4068908;29;20056;-64
2022/08/07 01:04:17;;;;;;;1.67;1.38;;;17.70;93.00;;;;;;4073064;29;20036;-64
2022/08/07 01:06:18;;;;;;;2.78;1.48;;;17.70;92.80;;;;;;4072810;29;20059;-64
2022/08/07 01:08:19;;;;;;;1.77;1.45;;;17.70;93.30;;;;;;4070581;29;20048;-64
2022/08/07 01:10:20;;;;;;;2.60;1.40;;;17.70;93.50;;;;;;4052988;29;20044;-64
2022/08/07 01:12:21;;;;;;;1.60;1.15;;;17.70;93.60;;;;;;4073789;29;20109;-64
2022/08/07 01:14:23;;;;;;;2.13;1.40;;;17.60;93.20;;;;;;4072804;29;20120;-64
2022/08/07 01:16:23;;;;;;;1.63;1.23;;;17.60;93.60;;;;;;4066672;29;20028;-64
2022/08/07 01:18:24;;;;;;;3.55;1.63;;;17.60;94.70;;;;;;4070434;29;21299;-64
2022/08/07 01:20:32;;;;;;;3.70;1.70;;;17.60;93.90;;;;;;4083058;28;20040;-64
2022/08/07 01:22:35;;;;;;;2.90;1.60;;;17.50;94.00;;;;;;4069110;29;20122;-64
2022/08/07 01:24:36;;;;;;;2.05;1.50;;;17.50;94.30;;;;;;4054405;29;20036;-64
2022/08/07 01:26:37;;;;;;;1.55;1.33;;;17.50;94.20;;;;;;4069286;29;20449;-64
2022/08/07 01:28:38;;;;;;;2.08;1.60;;;17.50;94.30;;;;;;4068471;29;20039;-64
2022/08/07 01:30:40;;;;;;;1.88;1.50;;;17.50;94.50;;;;;;4068712;29;20614;-64
2022/08/07 01:32:41;;;;;;;1.70;1.35;;;17.40;94.50;;;;;;4073258;29;20081;-64
2022/08/07 01:34:44;;;;;;;2.30;1.40;;;17.40;94.70;;;;;;4069286;29;20373;-64
2022/08/07 01:36:47;;;;;;;1.90;1.60;;;17.40;94.20;;;;;;4069392;29;20340;-64
2022/08/07 01:38:47;;;;;;;;;;;17.30;94.50;;;;;;4070935;29;20086;-64
2022/08/07 01:40:49;;;;;;;3.63;1.88;;;17.30;94.90;;;;;;4067314;29;19965;-64
2022/08/07 01:42:50;;;;;;;3.40;1.57;;;17.30;95.30;;;;;;4070576;29;20036;-64
2022/08/07 01:44:51;;;;;;;2.53;1.80;;;17.30;95.10;;;;;;4070733;29;20043;-65
2022/08/07 01:46:52;;;;;;;3.40;1.70;;;17.30;94.60;;;;;;4068329;29;20051;-64
2022/08/07 01:48:53;;;;;;;2.05;1.80;;;17.30;94.20;;;;;;4064399;29;20455;-64
2022/08/07 01:51:01;;;;;;;3.17;1.83;;;17.30;94.00;;;;;;4063631;29;20051;-64
2022/08/07 01:53:04;;;;;;;2.55;1.90;;;17.20;94.30;;;;;;4064335;29;20059;-64
2022/08/07 01:55:06;;;;;;;;;;;17.30;94.20;;;;;;4066200;29;20495;-66
2022/08/07 01:57:15;;;;;;;2.38;1.63;;;17.20;94.30;;;;;;4071064;29;20223;-65
2022/08/07 01:59:40;;;;;;;2.15;1.63;;;17.20;94.40;;;;;;4065889;29;20036;-64
2022/08/07 02:01:49;;;;;;;3.75;1.63;;;17.20;94.80;;;;;;4063990;29;20096;-64
2022/08/07 02:03:58;;;;;;;11.70;1.90;;;17.20;94.70;;;;;;4068703;29;20463;-64
2022/08/07 02:06:03;;;;;;;3.55;2.10;;;17.20;95.20;;;;;;4069032;29;20109;-64
2022/08/07 02:08:10;;;;;;;2.35;1.92;;;17.10;95.30;;;;;;4071856;29;20189;-64
2022/08/07 02:10:13;;;;;;;2.10;1.90;;;17.10;95.30;;;;;;4069563;29;20032;-65
2022/08/07 02:12:18;;;;;;;2.60;2.13;;;17.10;95.30;;;;;;4069416;29;21120;-64
2022/08/07 02:14:20;;;;;;;3.33;2.25;;;17.10;95.20;;;;;;4068991;29;20024;-64
2022/08/07 02:16:23;;;;;;;3.53;2.25;;;17.10;96.10;;;;;;4069032;29;20036;-64
2022/08/07 02:18:27;;;;;;;3.00;2.42;;;17.10;95.90;;;;;;4071206;29;20032;-64
2022/08/07 02:20:29;;;;;;;2.30;1.92;;;17.10;96.50;;;;;;4069849;29;20035;-64
2022/08/07 02:22:31;;;;;;;2.50;2.10;;;17.10;96.00;;;;;;4069491;29;20086;-64
2022/08/07 02:24:33;;;;;;;3.55;2.65;;;17.10;95.60;;;;;;4070776;29;20032;-64
2022/08/07 02:26:36;;;;;;;2.65;2.13;;;17.10;95.60;;;;;;4071170;29;20107;-64
2022/08/07 02:28:38;;;;;;;3.25;2.05;;;17.10;95.00;;;;;;4069557;29;20360;-64
2022/08/07 02:30:41;;;;;;;2.65;2.03;;;17.10;94.90;;;;;;4066954;29;20087;-64
2022/08/07 02:32:43;;;;;;;3.22;2.17;;;17.10;94.70;;;;;;4058845;29;21053;-65
2022/08/07 02:34:45;;;;;;;3.17;2.00;;;17.10;95.00;;;;;;4055118;29;20088;-64
2022/08/07 02:36:47;;;;;;;2.53;1.98;;;17.10;95.70;;;;;;4056152;29;20040;-64
2022/08/07 02:38:50;;;;;;;2.90;2.17;;;17.10;96.20;;;;;;4054802;29;20084;-64
2022/08/07 02:40:51;;;;;;;3.45;2.13;;;17.00;95.60;;;;;;4061105;29;20068;-64
2022/08/07 02:42:54;;;;;;;3.25;2.00;;;17.10;95.10;;;;;;4054497;29;20404;-64
2022/08/07 02:44:55;;;;;;;2.53;2.10;;;17.00;95.60;;;;;;4059048;29;20036;-64
2022/08/07 02:46:58;;;;;;;2.58;1.90;;;17.00;95.50;;;;;;4055523;29;20036;-65
2022/08/07 02:48:59;;;;;;;;;;;17.00;96.20;;;;;;4054073;29;20036;-64
2022/08/07 02:51:05;;;;;;;4.80;2.40;;;17.00;95.30;;;;;;4055411;29;19927;-64
2022/08/07 02:53:10;;;;;;;2.00;1.80;;;17.00;95.40;;;;;;4054147;29;20044;-64
2022/08/07 02:55:18;;;;;;;3.15;2.10;;;16.90;95.10;;;;;;4063868;29;20127;-65
2022/08/07 02:57:20;;;;;;;3.03;2.20;;;16.90;95.70;;;;;;4055551;29;20039;-64
2022/08/07 02:59:24;;;;;;;3.85;2.50;;;16.90;95.20;;;;;;4057479;29;20029;-64
2022/08/07 03:01:27;;;;;;;3.92;2.30;;;16.80;94.90;;;;;;4055766;29;20048;-64
2022/08/07 03:03:31;;;;;;;2.45;2.03;;;16.90;94.90;;;;;;4060002;29;20033;-64
2022/08/07 03:05:35;;;;;;;2.50;2.05;;;16.80;94.70;;;;;;4056597;29;20092;-64
2022/08/07 03:07:36;;;;;;;4.10;2.40;;;16.80;95.00;;;;;;4059304;29;20033;-64
2022/08/07 03:09:38;;;;;;;3.00;2.25;;;16.80;95.10;;;;;;4056206;29;20052;-64
2022/08/07 03:11:39;;;;;;;3.20;2.20;;;16.80;96.40;;;;;;4058312;29;20107;-64
2022/08/07 03:13:41;;;;;;;2.85;2.30;;;16.70;96.50;;;;;;4056493;29;20048;-64
2022/08/07 03:15:42;;;;;;;2.63;2.33;;;16.70;95.90;;;;;;4061873;29;20064;-64
2022/08/07 03:17:44;;;;;;;3.83;2.10;;;16.70;95.40;;;;;;4069381;29;20043;-64
2022/08/07 03:19:46;;;;;;;4.10;2.17;;;16.70;95.10;;;;;;4072250;29;20074;-64
2022/08/07 03:21:49;;;;;;;2.97;2.05;;;16.70;95.00;;;;;;4072531;29;20056;-64
2022/08/07 03:23:54;;;;;;;3.28;1.90;;;16.70;94.80;;;;;;4072097;29;20492;-64
2022/08/07 03:25:59;;;;;;;2.88;1.92;;;16.70;94.90;;;;;;4072983;29;20221;-64
2022/08/07 03:28:01;;;;;;;1.98;1.77;;;16.70;94.80;;;;;;4072517;29;20038;-64
2022/08/07 03:30:02;;;;;;;2.47;2.10;;;16.60;94.70;;;;;;4070687;29;20048;-64
2022/08/07 03:32:07;;;;;;;2.70;2.17;;;16.60;95.80;;;;;;4071677;29;20367;-64
2022/08/07 03:34:09;;;;;;;3.45;2.00;;;16.60;95.40;;;;;;4073874;29;20048;-64
2022/08/07 03:36:13;;;;;;;3.95;2.30;;;16.60;95.30;;;;;;4071080;29;20111;-63
2022/08/07 03:38:15;;;;;;;4.65;2.75;;;16.60;95.10;;;;;;4073477;29;20458;-64
2022/08/07 03:40:18;;;;;;;2.58;2.15;;;16.60;95.20;;;;;;4070373;29;20132;-64
2022/08/07 03:42:19;;;;;;;2.10;1.90;;;16.50;94.90;;;;;;4073081;29;20031;-64
2022/08/07 03:44:20;;;;;;;3.83;2.40;;;16.50;94.80;;;;;;4071786;29;20039;-64
2022/08/07 03:46:22;;;;;;;2.55;2.17;;;16.50;95.00;;;;;;4072249;29;20028;-64
2022/08/07 03:48:23;;;;;;;5.13;1.90;;;16.50;94.60;;;;;;4071793;29;20065;-64
2022/08/07 03:50:24;;;;;;;4.05;2.38;;;16.50;94.50;;;;;;4072227;29;20076;-64
2022/08/07 03:52:28;;;;;;;3.65;2.60;;;16.50;94.70;;;;;;4071146;29;20046;-64
2022/08/07 03:54:29;;;;;;;2.67;2.20;;;16.50;94.80;;;;;;4069354;29;20067;-64
2022/08/07 03:56:32;;;;;;;3.15;2.33;;;16.40;95.20;;;;;;4071946;29;20066;-64
2022/08/07 03:58:33;;;;;;;2.97;2.20;;;16.40;95.20;;;;;;4073013;29;20036;-63
2022/08/07 04:00:37;;;;;;;2.72;2.30;;;16.40;95.60;;;;;;4056181;29;20064;-64
2022/08/07 04:02:41;;;;;;;3.20;2.25;;;16.40;95.80;;;;;;4068271;29;20127;-64
2022/08/07 04:04:42;;;;;;;3.28;2.40;;;16.30;96.00;;;;;;4072737;29;20032;-64
2022/08/07 04:06:43;;;;;;;3.25;2.40;;;16.30;96.00;;;;;;4071556;29;20439;-64
2022/08/07 04:08:44;;;;;;;2.83;2.13;;;16.30;95.90;;;;;;4073197;29;20094;-66
2022/08/07 04:10:47;;;;;;;2.78;2.00;;;16.30;95.60;;;;;;4068227;29;20087;-64
2022/08/07 04:12:48;;;;;;;4.45;2.53;;;16.30;95.40;;;;;;4073284;29;20036;-64
2022/08/07 04:14:50;;;;;;;2.10;1.90;;;16.30;95.40;;;;;;4072165;29;20036;-64
2022/08/07 04:16:51;;;;;;;4.50;2.67;;;16.30;95.30;;;;;;4068704;29;20032;-63
2022/08/07 04:18:52;;;;;;;3.03;2.03;;;16.20;95.30;;;;;;4070751;29;20153;-63
2022/08/07 04:20:53;;;;;;;3.80;2.13;;;16.20;95.90;;;;;;4070643;29;20088;-63
2022/08/07 04:22:54;;;;;;;2.45;1.90;;;16.20;95.40;;;;;;4070516;29;20043;-63
2022/08/07 04:24:56;;;;;;;2.90;2.10;;;16.20;95.10;;;;;;4072128;29;20040;-63
2022/08/07 04:26:58;;;;;;;3.08;2.25;;;16.20;95.60;;;;;;4069517;29;20075;-63
2022/08/07 04:28:59;;;;;;;3.33;2.20;;;16.10;96.60;;;;;;4071633;29;20055;-63
2022/08/07 04:31:00;;;;;;;2.83;2.35;;;16.10;96.20;;;;;;4072926;28;20040;-63
2022/08/07 04:33:06;;;;;;;2.85;1.80;;;16.10;96.60;;;;;;4069349;29;20115;-63
2022/08/07 04:35:06;;;;;;;2.67;2.30;;;16.10;96.40;;;;;;4065408;29;20144;-63
2022/08/07 04:37:07;;;;;;;3.65;2.10;;;16.00;96.90;;;;;;4072732;29;20036;-63
2022/08/07 04:39:08;;;;;;;3.42;2.45;;;16.00;97.10;;;;;;4070673;29;20455;-63
2022/08/07 04:41:09;;;;;;;4.55;2.63;;;16.00;96.90;;;;;;4069273;29;20092;-63
2022/08/07 04:43:11;;;;;;;3.22;2.08;;;16.00;97.00;;;;;;4068398;29;20032;-63
2022/08/07 04:45:12;;;;;;;2.83;2.17;;;16.00;96.70;;;;;;4064569;29;20032;-63
2022/08/07 04:47:28;;;;;;;2.55;2.05;;;16.00;96.80;;;;;;4069422;29;20044;-64
2022/08/07 04:49:57;;;;;;;4.03;2.40;;;16.00;97.10;;;;;;4068210;29;20538;-63
2022/08/07 04:52:13;;;;;;;4.47;2.65;;;16.00;97.20;;;;;;4066036;29;20027;-63
2022/08/07 04:54:20;;;;;;;4.43;2.50;;;16.00;97.70;;;;;;4063819;29;20043;-65
2022/08/07 04:56:30;;;;;;;3.05;2.67;;;16.00;97.80;;;;;;4062918;29;20044;-63
2022/08/07 04:58:42;;;;;;;4.53;2.80;;;16.00;97.80;;;;;;4063631;29;20162;-63
2022/08/07 05:00:56;;;;;;;3.47;2.75;;;16.00;97.90;;;;;;4063197;29;20044;-64
2022/08/07 05:03:05;;;;;;;4.15;2.65;;;16.00;97.80;;;;;;4062973;29;20036;-63
2022/08/07 05:05:16;;;;;;;4.60;2.65;;;16.00;98.10;;;;;;4060044;29;20028;-65
2022/08/07 05:07:19;;;;;;;3.28;2.80;;;16.00;98.20;;;;;;4062035;29;20036;-63
2022/08/07 05:09:37;;;;;;;4.75;3.15;;;16.00;98.50;;;;;;4062388;29;20515;-63
2022/08/07 05:11:50;;;;;;;4.13;3.05;;;16.10;98.70;;;;;;4066193;29;20483;-64
2022/08/07 05:13:59;;;;;;;5.32;3.60;;;16.10;98.70;;;;;;4067314;29;20039;-64
2022/08/07 05:16:01;;;;;;;4.60;2.90;;;16.10;99.00;;;;;;4061571;29;20062;-64
2022/08/07 05:18:18;;;;;;;5.07;3.25;;;16.10;99.20;;;;;;4063001;29;20048;-63
2022/08/07 05:20:25;;;;;;;4.07;2.78;;;16.10;99.30;;;;;;4047555;29;20037;-63
2022/08/07 05:22:26;;;;;;;5.13;3.40;;;16.10;99.70;;;;;;4048024;29;20379;-63
2022/08/07 05:24:28;;;;;;;4.03;3.10;;;16.10;99.90;;;;;;4054452;29;20040;-63
2022/08/07 05:26:32;;;;;;;3.83;2.97;;;16.20;99.90;;;;;;4033422;29;20516;-63
2022/08/07 05:28:34;;;;;;;4.28;3.20;;;16.20;99.90;;;;;;4046494;29;21230;-63
2022/08/07 05:30:36;;;;;;;3.78;3.10;;;16.20;99.90;;;;;;4048280;29;20055;-63
2022/08/07 05:32:38;;;;;;;3.63;2.97;;;16.30;99.90;;;;;;4047150;29;20043;-65
2022/08/07 05:34:40;;;;;;;6.50;3.72;;;16.20;99.90;;;;;;4054426;29;20040;-63
2022/08/07 05:36:47;;;;;;;4.43;3.05;;;16.30;99.90;;;;;;4052933;29;20123;-64
2022/08/07 05:38:49;;;;;;;4.07;3.13;;;16.30;99.90;;;;;;4050005;29;20032;-64
2022/08/07 05:40:50;;;;;;;4.32;3.08;;;16.40;99.90;;;;;;4051903;29;20084;-63
2022/08/07 05:42:52;;;;;;;3.80;3.08;;;16.40;99.90;;;;;;4050450;29;20048;-63
2022/08/07 05:44:53;;;;;;;4.43;3.28;;;16.40;99.90;;;;;;4048881;29;20040;-63
2022/08/07 05:46:55;;;;;;;4.85;3.50;;;16.40;99.90;;;;;;4044842;29;20044;-63
2022/08/07 05:48:56;;;;;;;4.10;3.28;;;16.50;99.90;;;;;;4047869;29;20036;-63
2022/08/07 05:50:59;;;;;;;4.78;3.47;;;16.50;99.90;;;;;;4056589;29;20048;-63
2022/08/07 05:53:01;;;;;;;5.40;3.63;;;16.60;99.90;;;;;;4063737;29;20055;-63
2022/08/07 05:55:02;;;;;;;3.92;2.97;;;16.60;99.90;;;;;;4064247;29;20043;-63
2022/08/07 05:57:04;;;;;;;3.35;2.83;;;16.70;99.90;;;;;;4063138;29;20503;-63
2022/08/07 05:59:12;;;;;;;3.15;2.85;;;16.70;99.90;;;;;;4063404;29;20048;-63
2022/08/07 06:01:14;;;;;;;3.55;2.83;;;16.70;99.90;;;;;;4062136;29;20135;-65
2022/08/07 06:03:17;;;;;;;3.63;2.97;;;16.80;99.90;;;;;;4064226;29;20029;-66
2022/08/07 06:05:25;;;;;;;3.65;3.25;;;16.80;99.90;;;;;;4063176;29;20080;-66
2022/08/07 06:07:27;;;;;;;3.53;2.92;;;16.90;99.90;;;;;;4064318;29;20044;-66
2022/08/07 06:09:28;;;;;;;4.17;3.20;;;16.90;99.90;;;;;;4062422;29;20074;-66
2022/08/07 06:11:30;;;;;;;4.20;3.35;;;16.90;99.90;;;;;;4063932;29;20280;-66
2022/08/07 06:13:31;;;;;;;4.40;3.28;;;17.00;99.90;;;;;;4063714;29;20091;-66
2022/08/07 06:15:34;;;;;;;3.60;3.22;;;17.00;99.90;;;;;;4062863;29;20044;-66
2022/08/07 06:17:36;;;;;;;6.55;3.97;;;17.00;99.90;;;;;;4063648;29;20392;-66
2022/08/07 06:19:38;;;;;;;4.25;3.47;;;17.10;99.90;;;;;;4063205;29;20047;-66
2022/08/07 06:21:40;;;;;;;4.95;3.45;;;17.20;99.90;;;;;;4063910;29;20044;-66
2022/08/07 06:23:40;;;;;;;5.07;3.23;;;17.20;99.90;;;;;;4066883;29;20031;-66
2022/08/07 06:25:41;;;;;;;4.68;3.10;;;17.30;99.90;;;;;;4064959;29;20479;-66
2022/08/07 06:27:42;;;;;;;6.60;3.50;;;17.30;99.90;;;;;;4068342;29;20028;-66
2022/08/07 06:29:43;;;;;;;4.03;3.00;;;17.40;99.90;;;;;;4065881;29;20056;-66
2022/08/07 06:31:43;;;;;;;6.63;3.70;;;17.60;99.90;;;;;;4065381;29;20501;-66
2022/08/07 06:33:45;;;;;;;4.55;3.35;;;17.90;99.90;;;;;;4049546;29;20587;-66
2022/08/07 06:35:46;;;;;;;3.72;2.72;;;18.30;99.90;;;;;;4068898;29;20032;-66
2022/08/07 06:37:46;;;;;;;5.32;3.33;;;18.70;99.90;;;;;;4067510;29;20103;-67
2022/08/07 06:39:47;;;;;;;4.47;3.25;;;19.20;99.90;;;;;;4065918;29;20032;-68
2022/08/07 06:41:58;;;;;;;3.63;2.70;;;19.70;99.90;;;;;;4066749;29;20428;-67
2022/08/07 06:44:00;;;;;;;4.30;2.72;;;20.20;99.90;;;;;;4065551;29;20032;-67
2022/08/07 06:46:02;;;;;;;3.85;3.00;;;20.70;99.90;;;;;;4068721;29;20039;-67
2022/08/07 06:48:05;;;;;;;5.68;2.65;;;21.20;99.90;;;;;;4072299;29;20035;-67
2022/08/07 06:50:07;;;;;;;4.05;2.50;;;21.60;99.90;;;;;;4067770;29;20055;-69
2022/08/07 06:52:10;;;;;;;4.57;2.80;;;22.10;99.90;;;;;;4067030;29;20522;-67
2022/08/07 06:54:12;;;;;;;6.45;3.08;;;22.50;99.90;;;;;;4070195;29;20596;-67
2022/08/07 06:56:16;;;;;;;5.47;2.90;;;23.00;99.90;;;;;;4071869;29;20028;-67
2022/08/07 06:58:19;;;;;;;4.55;2.72;;;23.40;97.70;;;;;;4071748;29;20052;-68
2022/08/07 07:00:20;;;;;;;4.60;3.00;;;23.60;91.50;;;;;;4064756;29;20112;-67
2022/08/07 07:02:24;;;;;;;5.72;3.33;;;23.70;91.50;;;;;;4065925;29;20118;-68
2022/08/07 07:04:25;;;;;;;3.28;2.20;;;23.80;91.20;;;;;;4066104;29;20040;-67
2022/08/07 07:06:26;;;;;;;6.00;3.00;;;23.90;90.10;;;;;;4065341;29;20028;-68
2022/08/07 07:08:28;;;;;;;5.22;2.72;;;23.90;88.60;;;;;;4065461;29;20056;-68
2022/08/07 07:10:32;;;;;;;3.72;2.33;;;24.10;92.20;;;;;;4065291;29;21156;-68
2022/08/07 07:12:54;;;;;;;4.32;2.33;;;24.30;90.30;;;;;;4071210;29;20059;-68
2022/08/07 07:15:10;;;;;;;3.45;2.00;;;24.40;86.50;;;;;;4068852;29;20036;-68
2022/08/07 07:17:16;;;;;;;3.50;2.10;;;24.50;89.40;;;;;;4067180;29;20047;-68
2022/08/07 07:19:24;;;;;;;3.55;2.28;;;24.70;90.50;;;;;;4067137;29;20039;-68
2022/08/07 07:21:31;;;;;;;4.03;2.38;;;24.70;85.30;;;;;;4069441;29;20036;-68
2022/08/07 07:23:32;;;;;;;2.90;2.05;;;24.70;84.20;;;;;;4071877;29;20048;-68
2022/08/07 07:25:36;;;;;;;4.65;2.25;;;24.70;84.30;;;;;;4069536;29;20572;-67
2022/08/07 07:27:44;;;;;;;4.53;2.10;;;24.80;85.60;;;;;;4068937;29;20484;-67
2022/08/07 07:29:48;;;;;;;4.07;2.50;;;24.80;87.60;;;;;;4079356;29;20512;-67
2022/08/07 07:31:54;;;;;;;4.30;2.35;;;24.90;84.50;;;;;;4068384;29;20040;-68
2022/08/07 07:34:00;;;;;;;4.20;2.33;;;24.80;83.80;;;;;;4084055;28;20509;-67
2022/08/07 07:36:03;;;;;;;5.95;2.83;;;24.80;83.10;;;;;;4071945;29;20479;-67
2022/08/07 07:38:07;;;;;;;7.00;2.65;;;24.90;82.70;;;;;;4069978;29;20509;-67
2022/08/07 07:40:15;;;;;;;5.25;2.78;;;24.80;82.40;;;;;;4070621;29;20040;-67
2022/08/07 07:42:17;;;;;;;3.88;2.30;;;24.80;82.80;;;;;;4070952;29;20036;-67
2022/08/07 07:44:19;;;;;;;4.18;2.20;;;24.90;83.00;;;;;;4070754;29;20062;-68
2022/08/07 07:46:22;;;;;;;6.03;2.45;;;24.90;82.50;;;;;;4068049;29;20024;-67
2022/08/07 07:48:25;;;;;;;5.82;2.63;;;25.00;82.20;;;;;;4068878;29;20028;-67
2022/08/07 07:50:28;;;;;;;6.13;2.63;;;25.10;82.00;;;;;;4066387;29;20175;-67
2022/08/07 07:52:29;;;;;;;;;;;25.10;83.20;;;;;;4068506;29;20044;-67
2022/08/07 07:54:30;;;;;;;4.97;2.70;;;25.20;86.70;;;;;;4078764;29;20043;-67
2022/08/07 07:56:32;;;;;;;4.75;2.72;;;25.30;81.70;;;;;;4069080;29;20372;-67
2022/08/07 07:58:35;;;;;;;7.00;2.43;;;25.40;82.40;;;;;;4067617;29;20038;-67
2022/08/07 08:00:36;;;;;;;4.68;2.80;;;25.40;82.50;;;;;;4064967;29;20051;-67
2022/08/07 08:02:40;;;;;;;2.70;1.67;;;25.50;77.70;;;;;;4068110;29;20123;-67
2022/08/07 08:04:44;;;;;;;3.83;1.67;;;25.60;78.10;;;;;;4067458;29;20044;-67
2022/08/07 08:06:46;;;;;;;4.10;1.67;;;25.60;77.50;;;;;;4068959;29;20036;-67
2022/08/07 08:08:49;;;;;;;4.07;1.88;;;25.70;76.00;;;;;;4069772;29;20036;-67
2022/08/07 08:10:50;;;;;;;2.20;1.73;;;25.70;75.70;;;;;;4070563;29;20050;-68
2022/08/07 08:12:52;;;;;;;4.10;1.70;;;25.80;73.70;;;;;;4074129;29;20389;-67
2022/08/07 08:14:52;;;;;;;2.27;1.43;;;25.90;71.70;;;;;;4069552;29;20123;-67
2022/08/07 08:16:55;;;;;;;2.08;1.45;;;25.90;67.90;;;;;;4071205;29;20082;-67
2022/08/07 08:18:58;;;;;;;2.35;1.63;;;25.90;67.50;;;;;;4070701;29;20694;-67
2022/08/07 08:21:01;;;;;;;5.28;1.95;;;25.90;71.20;;;;;;4069787;29;20043;-67
2022/08/07 08:27:49;;;;;;;3.35;1.40;;;25.90;75.90;;;;;;4071990;29;20175;-68
2022/08/07 08:29:56;;;;;;;3.78;1.60;;;26.00;70.70;;;;;;4051946;29;20500;-68
2022/08/07 08:31:58;;;;;;;2.22;1.20;;;25.90;70.40;;;;;;4046725;29;20120;-68
2022/08/07 08:34:02;;;;;;;1.88;1.00;;;25.90;67.30;;;;;;4056337;29;20502;-68
2022/08/07 08:36:03;;;;;;;2.05;0.93;;;26.00;69.80;;;;;;4055262;29;20490;-68
2022/08/07 08:38:05;;;;;;;3.13;1.35;;;26.00;69.50;;;;;;4047758;29;20040;-68
2022/08/07 08:40:12;;;;;;;1.52;1.05;;;26.10;67.50;;;;;;4045133;29;20040;-68
2022/08/07 08:42:26;;;;;;;1.67;0.88;;;26.20;63.30;;;;;;4038764;29;20045;-68
2022/08/07 08:44:59;;;;;;;1.27;0.75;;;26.20;69.10;;;;;;4048215;29;20048;-68
2022/08/07 08:47:20;;;;;;;1.48;0.93;;;26.20;64.60;;;;;;4048990;29;20033;-68
2022/08/07 08:49:55;;;;;;;2.60;0.95;;;26.10;61.70;;;;;;4047736;29;20056;-67
2022/08/07 08:52:04;;;;;;;1.50;0.80;;;25.90;62.60;;;;;;4047258;29;20427;-67
2022/08/07 08:54:40;;;;;;;0.98;0.65;;;26.00;65.70;;;;;;4037828;29;20049;-67
2022/08/07 08:56:48;;;;;;;0.80;0.70;;;26.10;64.80;;;;;;4053781;29;20036;-66
2022/08/07 08:59:03;;;;;;;1.35;0.82;;;26.10;64.00;;;;;;4054864;29;20072;-66
2022/08/07 09:01:19;;;;;;;1.20;0.80;;;26.10;62.40;;;;;;4085574;28;20131;-66
2022/08/07 09:03:41;;;;;;;1.50;0.70;;;26.20;65.60;;;;;;4068326;29;20040;-68
2022/08/07 09:05:58;;;;;;;1.65;0.75;;;26.30;68.30;;;;;;4062297;29;20407;-67
2022/08/07 09:08:20;;;;;;;2.70;1.27;;;26.40;68.30;;;;;;4065498;29;20044;-67
2022/08/07 09:10:23;;;;;;;2.45;0.93;;;26.30;66.20;;;;;;4065089;29;20047;-67
2022/08/07 09:12:49;;;;;;;2.08;0.95;;;26.40;62.80;;;;;;4068347;29;20047;-67
2022/08/07 09:15:10;;;;;;;1.70;0.90;;;26.30;62.50;;;;;;4069344;29;20039;-68
2022/08/07 09:17:21;;;;;;;1.77;0.70;;;26.10;68.40;;;;;;4068956;29;20040;-66
2022/08/07 09:19:43;;;;;;;1.83;1.00;;;26.20;69.50;;;;;;4066003;29;20961;-67
2022/08/07 09:22:06;;;;;;;1.93;1.10;;;26.20;67.80;;;;;;4063133;29;20629;-66
2022/08/07 09:24:30;;;;;;;1.40;0.70;;;26.30;62.40;;;;;;4064207;29;20044;-66
2022/08/07 09:26:55;;;;;;;1.38;0.60;;;26.30;67.80;;;;;;4066033;29;20032;-66
2022/08/07 09:29:11;;;;;;;1.40;0.85;;;26.30;63.30;;;;;;4070829;29;20032;-66
2022/08/07 09:31:46;;;;;;;1.20;0.82;;;26.30;63.70;;;;;;4066746;29;20086;-66
2022/08/07 09:34:08;;;;;;;0.95;0.70;;;26.20;64.40;;;;;;4067764;29;20040;-66
2022/08/07 09:36:23;;;;;;;2.00;0.77;;;26.30;64.50;;;;;;4069900;29;20099;-66
2022/08/07 09:39:10;;;;;;;1.85;0.63;;;26.30;65.80;;;;;;4071610;29;20043;-66
2022/08/07 09:41:43;;;;;;;1.60;0.60;;;26.40;66.60;;;;;;4050208;29;20386;-66
2022/08/07 09:44:25;;;;;;;1.85;0.85;;;26.40;61.50;;;;;;4066809;29;20044;-66
2022/08/07 09:46:47;;;;;;;1.42;0.70;;;26.40;62.30;;;;;;4066457;29;20044;-66
2022/08/07 09:49:11;;;;;;;0.68;0.55;;;26.40;60.30;;;;;;4067112;29;20126;-66
2022/08/07 09:51:40;;;;;;;2.60;0.90;;;26.40;64.70;;;;;;4063818;29;20044;-66
2022/08/07 09:53:44;;;;;;;1.08;0.95;;;26.40;60.00;;;;;;4069214;29;20058;-65
2022/08/07 09:56:18;;;;;;;1.95;0.98;;;26.40;60.30;;;;;;4065142;29;20071;-66
2022/08/07 09:58:43;;;;;;;2.05;1.20;;;26.40;63.70;;;;;;4066234;29;20040;-66
2022/08/07 10:01:00;;;;;;;3.95;1.42;;;26.00;60.40;;;;;;4063610;29;20035;-66
2022/08/07 10:03:31;;;;;;;1.90;0.90;;;25.90;59.70;;;;;;4063987;29;20032;-66
2022/08/07 10:05:42;;;;;;;2.17;1.13;;;25.90;62.00;;;;;;4065206;29;20095;-66
2022/08/07 10:08:02;;;;;;;1.67;1.15;;;25.80;60.60;;;;;;4061678;29;20030;-66
2022/08/07 10:10:22;;;;;;;1.80;0.90;;;25.70;60.60;;;;;;4051552;29;20487;-66
2022/08/07 10:12:29;;;;;;;0.80;0.73;;;25.80;65.60;;;;;;4047404;29;20043;-66
2022/08/07 10:14:29;;;;;;;2.72;1.20;;;25.90;63.60;;;;;;4049203;29;20044;-66
2022/08/07 10:16:33;;;;;;;0.95;0.60;;;25.80;61.90;;;;;;4048298;29;20522;-67
2022/08/07 10:18:48;;;;;;;2.33;0.80;;;25.80;66.70;;;;;;4048913;29;20033;-66
2022/08/07 10:21:09;;;;;;;0.93;0.70;;;26.00;64.00;;;;;;4048347;29;20037;-66
2022/08/07 10:23:31;;;;;;;1.08;0.65;;;26.10;62.90;;;;;;4056603;29;20088;-66
2022/08/07 10:26:07;;;;;;;3.42;1.23;;;26.10;63.30;;;;;;4047649;29;20596;-66
2022/08/07 10:28:28;;;;;;;2.28;1.00;;;26.20;65.60;;;;;;4047487;29;20060;-67
2022/08/07 10:30:50;;;;;;;1.33;0.90;;;26.20;65.30;;;;;;4049543;29;20568;-66
2022/08/07 10:33:32;;;;;;;1.38;0.70;;;26.20;62.80;;;;;;4061011;29;20051;-66
2022/08/07 10:36:17;;;;;;;1.90;0.70;;;26.30;64.00;;;;;;4030161;29;20157;-67
2022/08/07 10:38:29;;;;;;;1.02;0.80;;;26.50;66.10;;;;;;4049409;29;20071;-66
2022/08/07 10:40:37;;;;;;;1.27;0.90;;;26.50;62.70;;;;;;4058364;29;20032;-67
2022/08/07 10:42:57;;;;;;;3.13;0.60;;;26.50;64.70;;;;;;4059177;29;20025;-68
2022/08/07 10:45:01;;;;;;;0.90;0.73;;;26.40;59.60;;;;;;4048391;29;20040;-67
2022/08/07 10:47:14;;;;;;;1.52;0.80;;;26.10;60.10;;;;;;4047136;29;20392;-67
2022/08/07 10:49:33;;;;;;;1.75;0.77;;;26.20;61.40;;;;;;4050105;29;20041;-67
2022/08/07 10:51:52;;;;;;;1.13;0.77;;;26.20;61.30;;;;;;4063170;29;20032;-67
2022/08/07 10:54:22;;;;;;;1.38;0.77;;;26.30;61.20;;;;;;4046725;29;20044;-66
2022/08/07 10:56:52;;;;;;;1.92;0.70;;;26.40;67.50;;;;;;4043591;29;20037;-67
2022/08/07 10:59:11;;;;;;;2.05;0.90;;;26.30;59.60;;;;;;4048041;29;20043;-67
2022/08/07 11:01:40;;;;;;;1.17;0.70;;;26.40;63.40;;;;;;4060712;29;20075;-66
2022/08/07 11:03:44;;;;;;;1.17;0.45;;;26.50;64.70;;;;;;4050227;29;20476;-66
2022/08/07 11:06:04;;;;;;;1.65;0.80;;;26.60;66.10;;;;;;4047889;29;20036;-66